Ariel, WA

7:16 PM PDT on October 22, 2014 (GMT -0700)
West Yale Valley | Change Station
CLOSE
Current Station
Personal Weather Station
Location: Ariel, WA
Elevation: 455 ft
Nearby Weather Stations

Elev 455 ft 46.00 °N, 122.40 °W | Updated 14 minutes ago

Mostly Cloudy
Mostly Cloudy
53.4 °F
Feels Like 53.4 °F
N
0.0
Wind Variable Wind from ESE
Gusts 0.0 mph

Today
High -- | Low -- °F
--% Chance of Precip.
Yesterday
High -- | Low -- °F
Precip. -- in
7:36 AM 6:11 PM
Waning Crescent, 1% visible
Pressure 29.69 in
Visibility 10.0 miles
Clouds Mostly Cloudy 2200 ft
Mostly Cloudy 2900 ft
Overcast 5500 ft
Dew Point 39 °F
Humidity 58%
Rainfall 2.38 in
Snow Depth 0 in , 0 in
UV 0 out of 12
Pollen .40 out of 12
Air Quality Not available.
Flu Activity Sporadic
METAR KKLS 230155Z AUTO 14010G19KT 10SM BKN022 BKN029 OVC055 14/11 A2969 RMK AO1

More Conditions Fewer Conditions

Pressure 29.69 in
Visibility 10.0 miles
Clouds Mostly Cloudy 2200 ft
Mostly Cloudy 2900 ft
Overcast 5500 ft
Dew Point 39 °F
Humidity 58%
Rainfall 2.38 in
Snow Depth 0 in , 0 in
UV 0 out of 12
Pollen .40 out of 12
Air Quality Not available.
Flu Activity Sporadic
METAR KKLS 230155Z AUTO 14010G19KT 10SM BKN022 BKN029 OVC055 14/11 A2969 RMK AO1

More Conditions Fewer Conditions

10-Day Weather Forecast

Almanac

Astronomy

Oct. 22, 2014 Rise Set
Actual Time 7:36 AM PDT 6:11 PM PDT
Civil Twilight 7:05 AM PDT 6:41 PM PDT
Nautical Twilight 6:31 AM PDT 7:16 PM PDT
Astronomical Twilight 5:56 AM PDT 7:51 PM PDT
Moon 6:19 AM PDT (10/22) 5:43 PM PDT (10/22)
Length of Visible Light 11h 35m
Length of Day
10h 34m
Tomorrow will be 3m 4s shorter.
Waning Crescent, 1% of the Moon is Illuminated
Today
Waning Crescent
Oct 23
New
Oct 30
First Quarter
Nov 6
Full
Nov 14
Last Quarter

Today's Extremes

State Highs State Lows

Community

WunderPhotos

Upload Photos

1,764,109 photos uploaded!

Nearby

Snow Depth

Station Depth Elevation
June Lake 0 in 3340 ft
Swift Creek 0 in 3770 ft
Spirit Lake 0 in 3120 ft
Spencer Meadow 0 in 3400 ft
Lone Pine 0 in 3800 ft

Earthquake Activity

City Distance Mag. Time & Date
No recent earthquake activity has been reported nearby.
Minimum magnitude displayed is 2.5.

Coastal Water Temperatures

Place Temperature
No Stations Reporting

Nearby Weather Stations